createdAt,value
2018-04-20T00:02:17.972Z,44.10
2018-04-20T00:04:45.697Z,44.20
2018-04-20T00:07:13.282Z,44.30
2018-04-20T00:09:41.717Z,44.40
2018-04-20T00:12:09.373Z,44.30
2018-04-20T00:14:37.865Z,44.50
2018-04-20T00:17:05.519Z,44.50
2018-04-20T00:19:33.963Z,44.60
2018-04-20T00:22:01.640Z,44.50
2018-04-20T00:24:29.229Z,44.70
2018-04-20T00:26:57.260Z,45.00
2018-04-20T00:29:25.580Z,45.20
2018-04-20T00:31:53.207Z,45.20
2018-04-20T00:34:21.558Z,45.30
2018-04-20T00:36:49.979Z,45.30
2018-04-20T00:39:17.622Z,45.40
2018-04-20T00:41:45.216Z,45.50
2018-04-20T00:44:12.804Z,45.60
2018-04-20T00:46:40.436Z,45.70
2018-04-20T00:49:08.844Z,46.00
2018-04-20T00:51:36.453Z,45.90
2018-04-20T00:54:16.225Z,46.10
2018-04-20T00:56:45.037Z,46.10
2018-04-20T00:59:12.628Z,46.40
2018-04-20T01:01:40.284Z,46.50
2018-04-20T01:04:07.879Z,46.70
2018-04-20T01:06:35.484Z,46.60
2018-04-20T01:09:03.085Z,46.60
2018-04-20T01:11:30.735Z,46.80
2018-04-20T01:13:58.325Z,46.70
2018-04-20T01:16:25.997Z,46.90
2018-04-20T01:18:53.603Z,46.90
2018-04-20T01:21:21.206Z,46.70
2018-04-20T01:23:48.781Z,46.70
2018-04-20T01:26:17.368Z,46.70
2018-04-20T01:28:45.815Z,46.60
2018-04-20T01:31:13.452Z,46.70
2018-04-20T01:33:41.812Z,46.80
2018-04-20T01:36:09.453Z,46.70
2018-04-20T01:38:37.869Z,47.00
2018-04-20T01:41:05.471Z,47.00
2018-04-20T01:43:33.052Z,47.10
2018-04-20T01:46:00.720Z,47.20
2018-04-20T01:48:28.317Z,47.40
2018-04-20T01:50:56.699Z,47.60
2018-04-20T01:53:24.269Z,47.50
2018-04-20T01:55:51.869Z,47.60
2018-04-20T01:58:19.472Z,47.70
2018-04-20T02:00:47.122Z,47.80
2018-04-20T02:03:15.461Z,48.00
2018-04-20T02:05:43.087Z,48.00
2018-04-20T02:08:10.682Z,48.10
2018-04-20T02:10:38.342Z,48.00
2018-04-20T02:13:06.056Z,48.00
2018-04-20T02:15:33.702Z,48.20
2018-04-20T02:18:01.401Z,48.40
2018-04-20T02:20:29.181Z,48.30
2018-04-20T02:22:56.808Z,48.40
2018-04-20T02:25:25.359Z,48.30
2018-04-20T02:27:52.984Z,48.20
2018-04-20T02:30:21.385Z,48.40
2018-04-20T02:32:49.902Z,48.30
2018-04-20T02:35:17.504Z,48.20
2018-04-20T02:37:45.100Z,48.20
2018-04-20T02:40:13.465Z,48.30
2018-04-20T02:42:41.105Z,48.30
2018-04-20T02:45:08.689Z,48.40
2018-04-20T02:47:36.281Z,48.40
2018-04-20T02:50:03.996Z,48.40
2018-04-20T02:52:31.588Z,48.50
2018-04-20T02:54:59.272Z,48.70
2018-04-20T02:57:27.181Z,48.70
2018-04-20T02:59:54.764Z,48.70
2018-04-20T03:02:22.364Z,48.70
2018-04-20T03:04:50.717Z,48.80
2018-04-20T03:07:18.349Z,48.70
2018-04-20T03:09:45.973Z,48.80
2018-04-20T03:12:13.552Z,48.80
2018-04-20T03:14:41.129Z,48.70
2018-04-20T03:17:08.717Z,48.80
2018-04-20T03:19:37.276Z,48.80
2018-04-20T03:22:04.941Z,48.80
2018-04-20T03:24:33.474Z,48.80
2018-04-20T03:27:01.866Z,49.40
2018-04-20T03:29:30.666Z,48.80
2018-04-20T03:31:58.268Z,48.70
2018-04-20T03:34:25.861Z,48.70
2018-04-20T03:36:53.465Z,48.90
2018-04-20T03:39:21.036Z,48.80
2018-04-20T03:41:48.715Z,48.90
2018-04-20T03:44:16.305Z,49.00
2018-04-20T03:46:43.936Z,48.90
2018-04-20T03:49:11.593Z,49.00
2018-04-20T03:51:40.173Z,49.00
2018-04-20T03:54:07.738Z,49.00
2018-04-20T03:56:36.163Z,49.00
2018-04-20T03:59:03.709Z,49.00
2018-04-20T04:01:31.364Z,48.90
2018-04-20T04:03:58.949Z,48.80
2018-04-20T04:06:27.383Z,48.90
2018-04-20T04:08:54.963Z,49.00
2018-04-20T04:11:22.617Z,49.00
2018-04-20T04:13:50.314Z,49.00
2018-04-20T04:16:29.843Z,49.00
2018-04-20T04:19:09.365Z,49.00
2018-04-20T04:21:49.853Z,49.10
2018-04-20T04:24:29.495Z,49.10
2018-04-20T04:27:01.986Z,49.10
2018-04-20T04:29:29.820Z,49.20
2018-04-20T04:31:58.038Z,49.40
2018-04-20T04:34:26.446Z,49.40
2018-04-20T04:36:54.125Z,49.30
2018-04-20T04:39:21.913Z,49.50
2018-04-20T04:41:49.838Z,49.70
2018-04-20T04:44:17.451Z,49.60
2018-04-20T04:46:45.129Z,49.70
2018-04-20T04:49:12.715Z,49.80
2018-04-20T04:51:40.306Z,49.80
2018-04-20T04:54:09.445Z,49.80
2018-04-20T04:56:37.065Z,49.80
2018-04-20T04:59:05.801Z,49.90
2018-04-20T05:01:33.718Z,49.90
2018-04-20T05:04:02.061Z,49.80
2018-04-20T05:06:29.875Z,49.90
2018-04-20T05:08:58.386Z,50.10
2018-04-20T05:11:26.123Z,50.10
2018-04-20T05:13:53.700Z,50.20
2018-04-20T05:16:21.806Z,50.30
2018-04-20T05:18:49.577Z,50.30
2018-04-20T05:21:19.129Z,50.20
2018-04-20T05:23:47.648Z,50.20
2018-04-20T05:26:15.441Z,50.30
2018-04-20T05:28:43.400Z,50.50
2018-04-20T05:31:11.877Z,50.80
2018-04-20T05:33:40.580Z,50.80
2018-04-20T05:36:08.158Z,50.80
2018-04-20T05:38:35.797Z,50.80
2018-04-20T05:41:04.935Z,51.10
2018-04-20T05:43:32.564Z,51.10
2018-04-20T05:46:00.154Z,50.90
2018-04-20T05:48:27.827Z,51.10
2018-04-20T05:50:55.501Z,51.20
2018-04-20T05:53:23.925Z,51.30
2018-04-20T05:55:51.531Z,51.30
2018-04-20T05:58:19.225Z,51.40
2018-04-20T06:00:47.500Z,51.60
2018-04-20T06:03:15.113Z,51.20
2018-04-20T06:05:42.717Z,51.50
2018-04-20T06:08:13.101Z,51.60
2018-04-20T06:10:41.683Z,52.20
2018-04-20T06:13:09.345Z,52.20
2018-04-20T06:15:37.407Z,52.20
2018-04-20T06:18:05.085Z,52.40
2018-04-20T06:20:32.652Z,52.50
2018-04-20T06:23:00.312Z,52.60
2018-04-20T06:25:27.934Z,52.80
2018-04-20T06:27:55.645Z,52.80
2018-04-20T06:30:23.230Z,52.50
2018-04-20T06:32:51.588Z,52.30
2018-04-20T06:35:19.579Z,52.10
2018-04-20T06:37:47.948Z,51.90
2018-04-20T06:40:15.563Z,51.70
2018-04-20T06:42:44.780Z,51.50
2018-04-20T06:45:12.427Z,52.00
2018-04-20T06:47:40.889Z,52.60
2018-04-20T06:50:08.504Z,52.50
2018-04-20T06:52:36.934Z,52.90
2018-04-20T06:55:04.595Z,52.90
2018-04-20T06:57:32.246Z,52.70
2018-04-20T06:59:59.926Z,53.10
2018-04-20T07:02:27.517Z,53.10
2018-04-20T07:04:55.144Z,53.00
2018-04-20T07:07:23.476Z,51.90
2018-04-20T07:09:51.088Z,52.40
2018-04-20T07:12:18.706Z,51.10
2018-04-20T07:14:46.354Z,51.40
2018-04-20T07:17:13.987Z,51.30
2018-04-20T07:19:41.635Z,50.60
2018-04-20T07:22:09.321Z,50.40
2018-04-20T07:24:36.991Z,50.00
2018-04-20T07:27:04.621Z,49.90
2018-04-20T07:29:33.082Z,49.60
2018-04-20T07:32:00.776Z,49.60
2018-04-20T07:34:29.251Z,48.70
2018-04-20T07:36:56.904Z,48.70
2018-04-20T07:39:25.304Z,48.20
2018-04-20T07:41:53.443Z,48.10
2018-04-20T07:44:21.178Z,47.70
2018-04-20T07:46:49.054Z,47.80
2018-04-20T07:49:17.688Z,47.40
2018-04-20T07:51:45.328Z,47.50
2018-04-20T07:54:13.896Z,46.50
2018-04-20T07:56:41.498Z,46.40
2018-04-20T07:59:09.186Z,46.00
2018-04-20T08:01:36.811Z,45.70
2018-04-20T08:04:05.275Z,45.60
2018-04-20T08:06:33.664Z,45.50
2018-04-20T08:09:01.332Z,45.40
2018-04-20T08:11:29.768Z,45.00
2018-04-20T08:13:58.282Z,44.90
2018-04-20T08:16:25.971Z,45.10
2018-04-20T08:18:54.466Z,44.80
2018-04-20T08:21:22.892Z,44.10
2018-04-20T08:23:50.584Z,44.10
2018-04-20T08:26:19.002Z,44.30
2018-04-20T08:28:48.778Z,44.20
2018-04-20T08:31:17.808Z,44.70
2018-04-20T08:33:45.650Z,44.80
2018-04-20T08:36:13.706Z,44.60
2018-04-20T08:38:41.447Z,44.10
2018-04-20T08:41:09.330Z,43.80
2018-04-20T08:43:37.429Z,43.60
2018-04-20T08:46:05.426Z,43.90
2018-04-20T08:48:33.309Z,43.60
2018-04-20T08:51:01.845Z,43.20
2018-04-20T08:53:30.563Z,43.00
2018-04-20T08:55:58.212Z,43.00
2018-04-20T08:59:49.198Z,43.10
2018-04-20T09:02:16.909Z,43.10
2018-04-20T09:04:44.531Z,43.20
2018-04-20T09:07:12.890Z,41.70
2018-04-20T09:09:40.509Z,41.60
2018-04-20T09:12:08.130Z,41.90
2018-04-20T09:14:35.774Z,42.60
2018-04-20T09:17:03.558Z,42.50
2018-04-20T09:19:31.161Z,42.40
2018-04-20T09:21:58.746Z,41.70
2018-04-20T09:24:29.473Z,42.20
2018-04-20T09:26:58.294Z,41.70
2018-04-20T09:29:26.669Z,41.90
2018-04-20T09:31:54.326Z,41.80
2018-04-20T09:34:22.318Z,40.70
2018-04-20T09:36:49.917Z,41.30
2018-04-20T09:39:17.574Z,40.70
2018-04-20T09:41:45.986Z,40.20
2018-04-20T09:44:14.507Z,40.00
2018-04-20T09:46:42.200Z,39.90
2018-04-20T09:49:10.622Z,40.40
2018-04-20T09:51:39.340Z,41.20
2018-04-20T09:54:09.322Z,40.00
2018-04-20T09:56:37.089Z,40.00
2018-04-20T09:59:05.590Z,40.00
2018-04-20T10:01:34.207Z,40.40
2018-04-20T10:04:07.625Z,40.30
2018-04-20T10:06:35.314Z,40.20
2018-04-20T10:09:02.914Z,39.90
2018-04-20T10:11:30.615Z,39.20
2018-04-20T10:13:58.247Z,38.80
2018-04-20T10:16:26.067Z,39.10
2018-04-20T10:18:54.934Z,38.60
2018-04-20T10:21:23.389Z,38.80
2018-04-20T10:23:51.006Z,38.70
2018-04-20T10:26:18.667Z,38.90
2018-04-20T10:28:46.355Z,38.50
2018-04-20T10:31:14.377Z,38.20
2018-04-20T10:33:42.623Z,37.60
2018-04-20T10:36:11.452Z,37.30
2018-04-20T10:38:39.459Z,37.20
2018-04-20T10:41:07.869Z,36.80
2018-04-20T10:43:36.265Z,35.80
2018-04-20T10:46:04.793Z,35.70
2018-04-20T10:48:33.189Z,35.50
2018-04-20T10:51:00.926Z,35.40
2018-04-20T10:53:28.561Z,34.70
2018-04-20T10:55:57.077Z,35.40
2018-04-20T10:58:25.503Z,36.00
2018-04-20T11:00:54.634Z,34.80
2018-04-20T11:03:22.333Z,34.70
2018-04-20T11:05:50.713Z,35.00
2018-04-20T11:08:18.337Z,34.80
2018-04-20T11:10:48.349Z,34.10
2018-04-20T11:13:17.062Z,33.90
2018-04-20T11:15:46.890Z,34.00
2018-04-20T11:18:15.108Z,33.70
2018-04-20T11:20:43.930Z,33.90
2018-04-20T11:23:12.013Z,33.80
2018-04-20T11:25:40.370Z,33.70
2018-04-20T11:28:09.920Z,33.10
2018-04-20T11:30:37.638Z,33.40
2018-04-20T11:33:05.509Z,32.50
2018-04-20T11:35:37.527Z,31.80
2018-04-20T11:38:06.956Z,31.70
2018-04-20T11:40:34.860Z,32.00
2018-04-20T11:43:03.642Z,32.20
2018-04-20T11:45:32.387Z,32.60
2018-04-20T11:48:01.735Z,32.90
2018-04-20T11:50:29.466Z,32.20
2018-04-20T11:52:57.132Z,31.10
2018-04-20T11:55:24.747Z,32.30
2018-04-20T11:57:52.374Z,32.20
2018-04-20T12:00:21.313Z,31.80
2018-04-20T12:02:49.751Z,31.50
2018-04-20T12:05:18.199Z,31.50
2018-04-20T12:07:45.786Z,31.40
2018-04-20T12:10:13.417Z,31.50
2018-04-20T12:15:18.310Z,31.30
2018-04-20T12:17:47.230Z,31.30
2018-04-20T12:20:15.410Z,31.10
2018-04-20T12:22:43.056Z,31.90
2018-04-20T12:25:11.995Z,30.90
2018-04-20T12:27:39.938Z,30.50
2018-04-20T12:30:07.586Z,31.00
2018-04-20T12:32:35.249Z,30.80
2018-04-20T12:35:02.922Z,30.70
2018-04-20T12:37:30.535Z,30.00
2018-04-20T12:39:58.602Z,30.00
2018-04-20T12:42:26.886Z,30.80
2018-04-20T12:44:56.076Z,31.10
2018-04-20T12:47:24.491Z,31.00
2018-04-20T12:49:52.974Z,30.50
2018-04-20T12:52:20.731Z,30.50
2018-04-20T12:54:48.431Z,30.00
2018-04-20T12:57:16.801Z,30.10
2018-04-20T12:59:45.084Z,30.00
2018-04-20T13:02:13.783Z,29.60
2018-04-20T13:04:41.461Z,29.60
2018-04-20T13:07:09.149Z,29.80
2018-04-20T13:09:36.855Z,30.20
2018-04-20T13:12:04.718Z,30.00
2018-04-20T13:14:33.814Z,29.90
2018-04-20T13:17:02.234Z,29.80
2018-04-20T13:19:29.910Z,29.70
2018-04-20T13:21:58.261Z,29.10
2018-04-20T13:24:25.907Z,29.70
2018-04-20T13:26:53.629Z,29.60
2018-04-20T13:29:22.821Z,29.20
2018-04-20T13:31:51.471Z,29.10
2018-04-20T13:34:19.120Z,29.00
2018-04-20T13:36:46.768Z,29.30
2018-04-20T13:39:19.704Z,29.10
2018-04-20T13:41:47.711Z,29.00
2018-04-20T13:44:19.062Z,29.50
2018-04-20T13:46:46.682Z,29.40
2018-04-20T13:49:14.406Z,28.80
2018-04-20T13:51:42.040Z,29.20
2018-04-20T13:54:09.683Z,29.10
2018-04-20T13:56:37.610Z,28.70
2018-04-20T13:59:06.314Z,28.40
2018-04-20T14:01:33.945Z,28.80
2018-04-20T14:04:01.690Z,28.80
2018-04-20T14:06:29.463Z,29.50
2018-04-20T14:08:58.137Z,29.10
2018-04-20T14:11:25.779Z,29.50
2018-04-20T14:13:54.179Z,28.70
2018-04-20T14:16:22.603Z,28.90
2018-04-20T14:18:50.256Z,28.80
2018-04-20T14:21:17.916Z,28.60
2018-04-20T14:23:45.533Z,28.70
2018-04-20T14:26:13.182Z,29.00
2018-04-20T14:28:40.825Z,29.20
2018-04-20T14:31:09.258Z,28.90
2018-04-20T14:33:38.901Z,28.90
2018-04-20T14:36:06.532Z,28.60
2018-04-20T14:38:34.236Z,28.60
2018-04-20T14:41:01.929Z,28.40
2018-04-20T14:43:29.629Z,28.30
2018-04-20T14:45:57.361Z,28.20
2018-04-20T14:48:24.982Z,28.40
2018-04-20T14:50:53.385Z,28.00
2018-04-20T14:53:21.025Z,28.00
2018-04-20T14:55:48.835Z,28.50
2018-04-20T14:58:16.473Z,28.90
2018-04-20T15:00:44.200Z,28.50
2018-04-20T15:03:11.861Z,28.50
2018-04-20T15:05:39.618Z,28.40
2018-04-20T15:08:09.106Z,28.50
2018-04-20T15:10:38.309Z,28.30
2018-04-20T15:13:07.817Z,28.30
2018-04-20T15:15:35.587Z,27.90
2018-04-20T15:18:03.290Z,27.80
2018-04-20T15:20:31.104Z,27.90
2018-04-20T15:22:58.690Z,28.10
2018-04-20T15:25:26.457Z,28.10
2018-04-20T15:27:54.844Z,27.60
2018-04-20T15:30:22.507Z,27.60
2018-04-20T15:32:50.195Z,27.60
2018-04-20T15:35:17.811Z,27.20
2018-04-20T15:37:45.434Z,27.30
2018-04-20T15:40:13.009Z,27.20
2018-04-20T15:42:40.598Z,27.40
2018-04-20T15:45:08.987Z,27.00
2018-04-20T15:47:37.349Z,27.50
2018-04-20T15:50:05.697Z,27.70
2018-04-20T15:52:33.363Z,27.30
2018-04-20T15:55:00.984Z,27.20
2018-04-20T15:57:28.569Z,27.20
2018-04-20T15:59:56.147Z,27.00
2018-04-20T16:02:24.618Z,27.30
2018-04-20T16:04:53.849Z,27.30
2018-04-20T16:07:22.249Z,27.00
2018-04-20T16:09:50.614Z,26.80
2018-04-20T16:12:18.993Z,26.60
2018-04-20T16:14:46.591Z,27.10
2018-04-20T16:17:14.478Z,26.80
2018-04-20T16:19:42.161Z,26.70
2018-04-20T16:22:11.339Z,26.70
2018-04-20T16:24:39.340Z,26.70
2018-04-20T16:27:07.012Z,26.60
2018-04-20T16:29:34.654Z,26.70
2018-04-20T16:32:02.347Z,26.90
2018-04-20T16:34:30.006Z,27.30
2018-04-20T16:36:57.700Z,27.10
2018-04-20T16:39:26.112Z,27.10
2018-04-20T16:41:53.798Z,27.10
2018-04-20T16:44:21.909Z,27.50
2018-04-20T16:46:49.553Z,27.50
2018-04-20T16:49:17.943Z,27.00
2018-04-20T16:51:46.338Z,27.30
2018-04-20T16:54:14.737Z,27.50
2018-04-20T16:56:43.085Z,27.10
2018-04-20T16:59:10.657Z,27.10
2018-04-20T17:01:38.701Z,26.90
2018-04-20T17:04:06.318Z,27.10
2018-04-20T17:06:33.943Z,27.30
2018-04-20T17:09:01.664Z,27.20
2018-04-20T17:11:30.043Z,26.80
2018-04-20T17:13:57.738Z,27.10
2018-04-20T17:16:26.250Z,27.00
2018-04-20T17:18:53.850Z,26.90
2018-04-20T17:21:22.218Z,27.20
2018-04-20T17:23:50.048Z,27.20
2018-04-20T17:26:19.107Z,27.90
2018-04-20T17:28:46.720Z,27.60
2018-04-20T17:31:14.343Z,28.10
2018-04-20T17:33:41.916Z,27.10
2018-04-20T17:36:11.039Z,27.10
2018-04-20T17:38:39.841Z,27.10
2018-04-20T17:41:08.209Z,27.80
2018-04-20T17:43:36.157Z,27.70
2018-04-20T17:46:03.912Z,27.90
2018-04-20T17:48:31.547Z,28.40
2018-04-20T17:50:59.897Z,28.90
2018-04-20T17:53:27.541Z,29.00
2018-04-20T17:55:56.102Z,29.30
2018-04-20T17:58:23.703Z,29.30
2018-04-20T18:00:52.080Z,29.50
2018-04-20T18:03:19.660Z,29.50
2018-04-20T18:05:47.310Z,29.80
2018-04-20T18:08:14.924Z,29.90
2018-04-20T18:10:43.350Z,30.30
2018-04-20T18:13:11.007Z,30.30
2018-04-20T18:15:39.512Z,30.70
2018-04-20T18:18:07.289Z,30.70
2018-04-20T18:20:34.963Z,31.00
2018-04-20T18:23:02.629Z,31.10
2018-04-20T18:25:30.312Z,31.20
2018-04-20T18:27:58.127Z,31.40
2018-04-20T18:30:25.729Z,31.70
2018-04-20T18:32:54.146Z,31.80
2018-04-20T18:35:21.755Z,31.70
2018-04-20T18:37:49.345Z,31.90
2018-04-20T18:40:16.921Z,32.00
2018-04-20T18:42:44.509Z,32.10
2018-04-20T18:45:12.079Z,32.30
2018-04-20T18:47:39.966Z,32.50
2018-04-20T18:50:07.592Z,32.70
2018-04-20T18:52:35.184Z,32.90
2018-04-20T18:55:03.535Z,33.30
2018-04-20T18:57:31.237Z,33.20
2018-04-20T18:59:58.998Z,33.30
2018-04-20T19:02:27.546Z,33.60
2018-04-20T19:04:55.266Z,33.50
2018-04-20T19:07:22.913Z,33.50
2018-04-20T19:09:52.699Z,33.70
2018-04-20T19:12:20.330Z,33.60
2018-04-20T19:14:47.985Z,33.80
2018-04-20T19:17:16.431Z,34.30
2018-04-20T19:19:44.265Z,34.20
2018-04-20T19:22:12.066Z,34.40
2018-04-20T19:24:40.597Z,34.50
2018-04-20T19:27:08.279Z,34.40
2018-04-20T19:29:37.555Z,34.50
2018-04-20T19:32:05.647Z,34.50
2018-04-20T19:34:33.348Z,34.70
2018-04-20T19:37:00.980Z,34.70
2018-04-20T19:39:28.727Z,34.80
2018-04-20T19:41:57.138Z,35.10
2018-04-20T19:44:25.082Z,35.10
2018-04-20T19:46:53.822Z,35.10
2018-04-20T19:49:25.357Z,35.20
2018-04-20T19:51:53.766Z,35.30
2018-04-20T19:54:22.389Z,35.70
2018-04-20T19:56:50.337Z,35.60
2018-04-20T19:59:18.051Z,35.80
2018-04-20T20:01:45.855Z,35.90
2018-04-20T20:04:13.500Z,36.00
2018-04-20T20:06:41.278Z,36.10
2018-04-20T20:09:09.140Z,36.10
2018-04-20T20:11:36.847Z,36.10
2018-04-20T20:14:05.131Z,36.10
2018-04-20T20:16:36.228Z,36.30
2018-04-20T20:19:04.687Z,36.30
2018-04-20T20:21:33.782Z,36.60
2018-04-20T20:24:02.585Z,36.60
2018-04-20T20:26:31.173Z,36.70
2018-04-20T20:32:31.532Z,37.00
2018-04-20T20:35:00.029Z,37.10
2018-04-20T20:37:28.421Z,37.40
2018-04-20T20:39:56.902Z,37.40
2018-04-20T20:42:24.603Z,37.40
2018-04-20T20:44:52.385Z,37.60
2018-04-20T20:47:20.022Z,37.60
2018-04-20T20:49:47.826Z,37.90
2018-04-20T20:52:15.556Z,37.80
2018-04-20T20:54:43.436Z,37.70
2018-04-20T20:57:11.135Z,37.80
2018-04-20T20:59:40.468Z,38.00
2018-04-20T21:02:08.936Z,38.00
2018-04-20T21:04:36.665Z,38.40
2018-04-20T21:07:05.633Z,38.70
2018-04-20T21:09:34.688Z,39.30
2018-04-20T21:12:03.626Z,39.20
2018-04-20T21:14:31.598Z,39.60
2018-04-20T21:17:00.423Z,40.30
2018-04-20T21:19:28.097Z,40.30
2018-04-20T21:21:55.863Z,40.40
2018-04-20T21:24:25.321Z,40.30
2018-04-20T21:26:52.997Z,40.40
2018-04-20T21:29:20.646Z,41.10
2018-04-20T21:31:49.232Z,41.10
2018-04-20T21:34:16.883Z,40.50
2018-04-20T21:36:46.041Z,40.10
2018-04-20T21:39:14.445Z,40.10
2018-04-20T21:41:42.101Z,40.10
2018-04-20T21:44:10.524Z,40.20
2018-04-20T21:46:38.666Z,40.10
2018-04-20T21:49:07.216Z,40.40
2018-04-20T21:51:34.950Z,40.20
2018-04-20T21:54:02.683Z,40.20
2018-04-20T21:56:31.385Z,40.10
2018-04-20T21:58:59.080Z,40.10
2018-04-20T22:01:27.711Z,40.20
2018-04-20T22:03:55.328Z,40.20
2018-04-20T22:06:23.043Z,40.10
2018-04-20T22:08:51.481Z,40.20
2018-04-20T22:11:19.157Z,40.20
2018-04-20T22:13:46.814Z,40.20
2018-04-20T22:16:14.743Z,40.20
2018-04-20T22:18:42.369Z,40.10
2018-04-20T22:21:10.122Z,40.10
2018-04-20T22:23:39.032Z,40.10
2018-04-20T22:26:06.761Z,40.10
2018-04-20T22:28:35.286Z,40.20
2018-04-20T22:31:03.694Z,40.30
2018-04-20T22:33:32.894Z,40.30
2018-04-20T22:36:01.339Z,40.20
2018-04-20T22:38:28.934Z,40.30
2018-04-20T22:40:56.568Z,40.40
2018-04-20T22:43:24.189Z,40.50
2018-04-20T22:45:52.605Z,40.80
2018-04-20T22:48:20.991Z,41.10
2018-04-20T22:50:49.420Z,41.20
2018-04-20T22:53:16.997Z,41.10
2018-04-20T22:55:44.641Z,41.20
2018-04-20T22:58:12.249Z,41.20
2018-04-20T23:00:39.889Z,41.20
2018-04-20T23:03:08.449Z,41.10
2018-04-20T23:05:36.098Z,41.30
2018-04-20T23:08:03.874Z,41.70
2018-04-20T23:10:31.478Z,41.30
2018-04-20T23:12:59.122Z,41.40
2018-04-20T23:15:26.821Z,42.10
2018-04-20T23:17:54.517Z,42.60
2018-04-20T23:20:22.923Z,43.30
2018-04-20T23:22:50.614Z,43.30
2018-04-20T23:27:52.273Z,43.60
2018-04-20T23:30:20.806Z,43.70
2018-04-20T23:32:48.482Z,43.60
2018-04-20T23:35:16.133Z,43.70
2018-04-20T23:37:43.869Z,43.80
2018-04-20T23:40:12.311Z,44.00
2018-04-20T23:42:39.970Z,44.00
2018-04-20T23:45:07.602Z,44.10
2018-04-20T23:47:35.273Z,44.20
2018-04-20T23:50:02.950Z,44.30
2018-04-20T23:52:30.573Z,44.30
2018-04-20T23:54:58.274Z,44.40
2018-04-20T23:57:26.005Z,44.20
2018-04-20T23:59:54.402Z,44.50
